Česky Dansk Deutsch English Español Suomi Français Magyar Italiano Nederlands norsk Polski Português svenska Türkçe

 

Het Weer

La Rochelle (Frankrijk)

01:30, 21 augustus 2016 (GMT)

NWNNE
WE
SWSSE
Home            
La Rochelle Niort La Roche-Sur-Yon Cognac Nantes Poitiers Bordeaux / Merignac St-Nazaire Angers Cazaux Limoges Perigueux Biscarosse Bergerac Tours Rennes Le Mans Brive Chateauroux Lann Bihoue Romorantin Mont-De-Marsan Agen

Om een weerknop op uw website of weblog te plaatsen, copieer onderstaande code en plak die in uw pagina. In het eerste vakje staat HTML-code, in het tweede vakje UBB-code.


Add to Google

Details

Wind speed:3 bf, 7 kn, 3.6 m/s, 8.1 miles/h, 13.0 km/h
Wind direction:W, 270°
Visibility:Greater than 10000 m, 10 km, 32800 ft, 6.2 miles
Temperature:17°C, 63°F
Dew-point:14°C, 57°F
Atmospheric pressure:1022 hPa, 766.6 mmHg, 30.18 inHg, 1.009 atm
Relative humidity:82.5 %
METAR:LFBH 210130Z AUTO 27007KT 9999 NCD 17/14 Q1022 NOSIG

Snelkoppelingen

Actuele weersinformatie van de hele wereld. Voeg locaties toe met het plus (+) symbool. Deze snelkoppelingen kunnen worden toegevoegd aan Google.

Lid van de Technetium groep

website free tracking
StatCounter NetStat W3C Validator

23-10-2020 12:33:22
astro.technetium.be money.technetium.be phote.technetium.be tafeltennistafel.technetium.be www.ligfiets.net